createdAt,value
2018-06-19T00:01:21.934Z,15.20
2018-06-19T00:03:50.829Z,15.27
2018-06-19T00:06:19.710Z,16.60
2018-06-19T00:08:48.390Z,16.73
2018-06-19T00:11:17.162Z,17.17
2018-06-19T00:13:46.090Z,16.37
2018-06-19T00:16:14.990Z,16.47
2018-06-19T00:18:46.409Z,17.40
2018-06-19T00:21:22.962Z,16.97
2018-06-19T00:23:51.878Z,17.73
2018-06-19T00:26:20.755Z,17.63
2018-06-19T00:28:49.655Z,18.90
2018-06-19T00:31:18.550Z,18.67
2018-06-19T00:33:47.455Z,19.67
2018-06-19T00:36:16.330Z,20.93
2018-06-19T00:38:45.235Z,20.47
2018-06-19T00:41:14.110Z,20.63
2018-06-19T00:43:43.005Z,20.20
2018-06-19T00:46:11.911Z,21.67
2018-06-19T00:48:40.798Z,21.73
2018-06-19T00:51:09.686Z,21.83
2018-06-19T00:53:38.586Z,21.33
2018-06-19T00:57:13.917Z,21.93
2018-06-19T00:59:42.810Z,21.20
2018-06-19T01:02:11.695Z,22.67
2018-06-19T01:04:40.586Z,22.63
2018-06-19T01:07:09.470Z,23.20
2018-06-19T01:09:38.363Z,22.33
2018-06-19T01:12:07.254Z,23.03
2018-06-19T01:14:36.153Z,22.80
2018-06-19T01:17:05.217Z,21.70
2018-06-19T01:19:34.107Z,22.00
2018-06-19T01:22:02.998Z,21.73
2018-06-19T01:24:31.894Z,21.83
2018-06-19T01:27:00.785Z,20.87
2018-06-19T01:29:29.674Z,22.07
2018-06-19T01:31:58.557Z,21.07
2018-06-19T01:34:27.439Z,21.00
2018-06-19T01:36:56.317Z,20.33
2018-06-19T01:39:25.218Z,21.07
2018-06-19T01:41:54.096Z,20.50
2018-06-19T01:44:22.985Z,20.67
2018-06-19T01:46:51.875Z,20.40
2018-06-19T01:49:20.761Z,19.87
2018-06-19T01:51:49.643Z,20.23
2018-06-19T01:54:18.557Z,19.73
2018-06-19T01:56:47.489Z,20.90
2018-06-19T01:59:16.426Z,19.60
2018-06-19T02:01:45.307Z,20.90
2018-06-19T02:04:14.503Z,20.83
2018-06-19T02:06:43.383Z,20.73
2018-06-19T02:09:12.296Z,20.63
2018-06-19T02:11:41.187Z,21.13
2018-06-19T02:14:10.074Z,21.17
2018-06-19T02:16:38.942Z,20.37
2018-06-19T02:19:07.838Z,21.00
2018-06-19T02:21:36.723Z,20.90
2018-06-19T02:24:05.626Z,21.97
2018-06-19T02:26:34.495Z,20.13
2018-06-19T02:29:03.182Z,20.57
2018-06-19T02:31:31.940Z,20.23
2018-06-19T02:34:00.825Z,19.50
2018-06-19T02:36:29.699Z,20.83
2018-06-19T02:38:58.586Z,20.77
2018-06-19T02:41:27.463Z,20.63
2018-06-19T02:43:56.342Z,20.03
2018-06-19T02:46:25.231Z,19.77
2018-06-19T02:48:54.076Z,19.30
2018-06-19T02:51:22.971Z,19.90
2018-06-19T02:53:51.843Z,19.03
2018-06-19T02:56:20.733Z,20.00
2018-06-19T02:58:49.603Z,19.97
2018-06-19T03:01:18.558Z,19.93
2018-06-19T03:03:47.427Z,19.83
2018-06-19T03:06:16.350Z,19.87
2018-06-19T03:08:45.237Z,20.10
2018-06-19T03:11:14.139Z,19.90
2018-06-19T03:13:43.019Z,19.57
2018-06-19T03:16:11.921Z,20.50
2018-06-19T03:18:40.820Z,20.33
2018-06-19T03:21:09.803Z,19.40
2018-06-19T03:23:38.734Z,19.13
2018-06-19T03:26:07.642Z,18.50
2018-06-19T03:28:36.529Z,18.37
2018-06-19T03:31:05.434Z,18.03
2018-06-19T03:33:34.303Z,17.43
2018-06-19T03:36:03.186Z,17.97
2018-06-19T03:38:32.064Z,17.13
2018-06-19T03:41:00.951Z,17.07
2018-06-19T03:43:29.828Z,15.23
2018-06-19T03:45:58.722Z,14.73
2018-06-19T03:48:27.600Z,14.20
2018-06-19T03:50:56.506Z,14.63
2018-06-19T03:53:25.371Z,13.87
2018-06-19T03:55:54.324Z,12.73
2018-06-19T03:58:23.219Z,13.00
2018-06-19T04:00:52.543Z,13.93
2018-06-19T04:03:21.486Z,13.70
2018-06-19T04:05:50.370Z,13.53
2018-06-19T04:08:19.259Z,12.50
2018-06-19T04:10:48.175Z,12.60
2018-06-19T04:13:17.046Z,11.57
2018-06-19T04:15:45.951Z,10.57
2018-06-19T04:18:14.823Z,11.47
2018-06-19T04:20:43.723Z,9.83
2018-06-19T04:23:12.599Z,9.43
2018-06-19T04:25:41.487Z,9.43
2018-06-19T04:28:10.603Z,9.20
2018-06-19T04:30:39.582Z,9.70
2018-06-19T04:33:08.450Z,8.93
2018-06-19T04:35:37.121Z,8.17
2018-06-19T04:38:05.861Z,8.60
2018-06-19T04:40:34.748Z,7.73
2018-06-19T04:43:03.618Z,7.17
2018-06-19T04:45:32.506Z,7.10
2018-06-19T04:48:01.363Z,6.87
2018-06-19T04:50:30.307Z,7.23
2018-06-19T04:52:59.202Z,6.83
2018-06-19T04:55:28.308Z,6.70
2018-06-19T04:57:57.179Z,6.20
2018-06-19T05:00:26.039Z,6.70
2018-06-19T05:02:54.927Z,6.20
2018-06-19T05:05:23.805Z,5.93
2018-06-19T05:07:52.686Z,5.97
2018-06-19T05:10:21.581Z,6.13
2018-06-19T05:12:50.614Z,5.37
2018-06-19T05:15:19.478Z,6.07
2018-06-19T05:17:48.387Z,5.20
2018-06-19T05:20:17.277Z,6.20
2018-06-19T05:22:45.917Z,5.50
2018-06-19T05:25:14.721Z,5.50
2018-06-19T05:27:43.564Z,5.57
2018-06-19T05:30:12.439Z,5.53
2018-06-19T05:32:41.327Z,6.30
2018-06-19T05:35:10.191Z,6.07
2018-06-19T05:37:39.074Z,6.17
2018-06-19T05:40:07.956Z,6.07
2018-06-19T05:42:36.834Z,5.83
2018-06-19T05:45:05.699Z,6.30
2018-06-19T05:47:34.590Z,6.60
2018-06-19T05:50:03.459Z,5.93
2018-06-19T05:52:32.342Z,6.20
2018-06-19T05:55:01.207Z,6.30
2018-06-19T05:57:30.090Z,5.97
2018-06-19T05:59:58.979Z,6.53
2018-06-19T06:02:27.867Z,6.07
2018-06-19T06:04:56.744Z,6.50
2018-06-19T06:07:25.636Z,6.40
2018-06-19T06:09:54.703Z,6.53
2018-06-19T06:12:23.613Z,6.40
2018-06-19T06:14:52.262Z,6.17
2018-06-19T06:17:21.138Z,6.03
2018-06-19T06:19:50.099Z,6.20
2018-06-19T06:22:18.981Z,5.80
2018-06-19T06:24:47.846Z,5.80
2018-06-19T06:27:16.734Z,5.50
2018-06-19T06:29:45.602Z,5.97
2018-06-19T06:32:14.487Z,5.70
2018-06-19T06:34:43.351Z,5.60
2018-06-19T06:37:12.238Z,5.67
2018-06-19T06:39:41.096Z,5.67
2018-06-19T06:42:09.971Z,5.57
2018-06-19T06:44:38.834Z,6.23
2018-06-19T06:47:08.298Z,6.07
2018-06-19T06:49:37.169Z,6.60
2018-06-19T06:52:06.592Z,6.30
2018-06-19T06:54:35.463Z,5.70
2018-06-19T06:57:04.351Z,5.73
2018-06-19T06:59:33.210Z,6.00
2018-06-19T07:02:02.088Z,6.27
2018-06-19T07:04:30.959Z,5.97
2018-06-19T07:06:59.836Z,6.47
2018-06-19T07:09:28.707Z,6.33
2018-06-19T07:11:57.599Z,6.57
2018-06-19T07:14:26.518Z,6.13
2018-06-19T07:16:55.379Z,6.20
2018-06-19T07:19:24.282Z,6.77
2018-06-19T07:21:53.158Z,6.40
2018-06-19T07:24:22.051Z,6.53
2018-06-19T07:26:50.922Z,6.33
2018-06-19T07:29:20.096Z,6.33
2018-06-19T07:31:49.055Z,6.33
2018-06-19T07:34:17.942Z,6.33
2018-06-19T07:36:46.837Z,6.40
2018-06-19T07:39:15.698Z,6.20
2018-06-19T07:41:44.610Z,6.07
2018-06-19T07:44:13.559Z,7.10
2018-06-19T07:46:42.452Z,6.60
2018-06-19T07:49:11.375Z,7.07
2018-06-19T07:51:40.227Z,6.60
2018-06-19T07:54:09.123Z,6.47
2018-06-19T07:56:38.001Z,7.03
2018-06-19T07:59:06.903Z,6.90
2018-06-19T08:01:35.775Z,6.63
2018-06-19T08:04:04.739Z,6.97
2018-06-19T08:06:33.763Z,6.67
2018-06-19T08:09:02.721Z,6.87
2018-06-19T08:11:31.598Z,6.53
2018-06-19T08:14:00.498Z,7.30
2018-06-19T08:16:29.371Z,7.70
2018-06-19T08:18:58.262Z,6.90
2018-06-19T08:21:27.140Z,6.87
2018-06-19T08:23:56.035Z,7.33
2018-06-19T08:26:24.926Z,7.27
2018-06-19T08:28:53.987Z,7.67
2018-06-19T08:31:22.867Z,7.97
2018-06-19T08:33:51.760Z,7.93
2018-06-19T08:36:20.666Z,8.10
2018-06-19T08:38:49.503Z,8.00
2018-06-19T08:41:18.378Z,8.70
2018-06-19T08:43:47.300Z,8.47
2018-06-19T08:46:16.211Z,8.87
2018-06-19T08:48:45.337Z,9.10
2018-06-19T08:51:14.687Z,9.20
2018-06-19T08:53:43.585Z,9.23
2018-06-19T08:56:12.467Z,10.40
2018-06-19T08:58:41.369Z,9.97
2018-06-19T09:01:10.231Z,10.23
2018-06-19T09:03:39.127Z,10.40
2018-06-19T09:06:08.011Z,11.20
2018-06-19T09:08:36.935Z,11.10
2018-06-19T09:11:06.103Z,10.47
2018-06-19T09:13:35.220Z,10.70
2018-06-19T09:16:04.184Z,10.83
2018-06-19T09:18:33.119Z,10.10
2018-06-19T09:21:02.002Z,10.50
2018-06-19T09:23:30.887Z,11.17
2018-06-19T09:25:59.797Z,12.17
2018-06-19T09:28:28.651Z,13.20
2018-06-19T09:30:57.542Z,13.70
2018-06-19T09:33:26.418Z,14.20
2018-06-19T09:35:55.305Z,14.80
2018-06-19T09:38:24.232Z,15.73
2018-06-19T09:40:53.125Z,18.20
2018-06-19T09:43:22.008Z,17.30
2018-06-19T09:45:50.896Z,18.90
2018-06-19T09:48:19.773Z,20.63
2018-06-19T09:50:48.658Z,18.87
2018-06-19T09:53:17.577Z,19.80
2018-06-19T09:55:46.577Z,21.00
2018-06-19T09:58:15.502Z,19.40
2018-06-19T10:00:44.355Z,20.47
2018-06-19T10:03:13.438Z,18.63
2018-06-19T10:05:42.518Z,19.07
2018-06-19T10:08:11.589Z,17.97
2018-06-19T10:10:40.698Z,19.00
2018-06-19T10:13:09.760Z,18.53
2018-06-19T10:15:38.853Z,20.33
2018-06-19T10:18:07.891Z,21.07
2018-06-19T10:20:36.963Z,19.23
2018-06-19T10:23:06.031Z,20.03
2018-06-19T10:25:35.135Z,20.77
2018-06-19T10:28:04.224Z,21.07
2018-06-19T10:30:33.306Z,20.67
2018-06-19T10:33:02.380Z,19.07
2018-06-19T10:35:31.479Z,21.33
2018-06-19T10:38:00.547Z,19.03
2018-06-19T10:40:29.623Z,20.50
2018-06-19T10:42:58.754Z,21.50
2018-06-19T10:45:27.794Z,21.37
2018-06-19T10:47:56.864Z,20.17
2018-06-19T10:50:25.974Z,21.60
2018-06-19T10:52:55.103Z,22.00
2018-06-19T10:55:24.206Z,22.80
2018-06-19T10:57:53.288Z,22.97
2018-06-19T11:00:22.422Z,23.77
2018-06-19T11:02:51.473Z,23.20
2018-06-19T11:05:20.602Z,25.37
2018-06-19T11:07:49.646Z,23.67
2018-06-19T11:10:18.715Z,21.60
2018-06-19T11:12:47.788Z,20.47
2018-06-19T11:15:16.870Z,21.40
2018-06-19T11:17:45.907Z,19.00
2018-06-19T11:20:15.001Z,19.37
2018-06-19T11:22:44.059Z,18.43
2018-06-19T11:25:13.135Z,18.00
2018-06-19T11:27:42.183Z,17.40
2018-06-19T11:30:11.267Z,17.87
2018-06-19T11:32:40.319Z,17.33
2018-06-19T11:35:09.395Z,18.07
2018-06-19T11:37:38.481Z,17.93
2018-06-19T11:40:07.580Z,17.30
2018-06-19T11:42:36.678Z,17.87
2018-06-19T11:45:12.360Z,18.03
2018-06-19T11:47:41.425Z,17.83
2018-06-19T11:50:10.782Z,18.17
2018-06-19T11:52:40.188Z,17.50
2018-06-19T11:55:09.349Z,16.93
2018-06-19T11:57:38.426Z,18.00
2018-06-19T12:00:07.580Z,18.07
2018-06-19T12:02:36.675Z,19.27
2018-06-19T12:05:05.757Z,19.70
2018-06-19T12:07:38.732Z,19.70
2018-06-19T12:10:08.039Z,20.47
2018-06-19T12:12:37.358Z,21.13
2018-06-19T12:15:06.424Z,20.23
2018-06-19T12:17:35.498Z,20.23
2018-06-19T12:20:05.040Z,20.10
2018-06-19T12:22:34.123Z,19.90
2018-06-19T12:25:03.211Z,21.40
2018-06-19T12:27:32.291Z,21.27
2018-06-19T12:30:01.372Z,20.93
2018-06-19T12:32:30.440Z,22.00
2018-06-19T12:34:59.483Z,21.80
2018-06-19T12:37:28.798Z,21.67
2018-06-19T12:39:57.847Z,19.97
2018-06-19T12:42:27.000Z,20.47
2018-06-19T12:44:56.048Z,19.13
2018-06-19T12:47:25.123Z,18.23
2018-06-19T12:50:40.801Z,18.77
2018-06-19T12:53:21.516Z,18.53
2018-06-19T12:56:02.606Z,18.03
2018-06-19T12:58:31.765Z,18.63
2018-06-19T13:01:00.826Z,19.60
2018-06-19T13:03:41.114Z,18.53
2018-06-19T13:06:21.526Z,18.70
2018-06-19T13:08:50.572Z,19.10
2018-06-19T13:11:19.647Z,17.50
2018-06-19T13:14:00.049Z,18.40
2018-06-19T13:16:40.437Z,18.37
2018-06-19T13:19:24.054Z,17.97
2018-06-19T13:21:53.175Z,16.27
2018-06-19T13:24:22.959Z,14.90
2018-06-19T13:26:52.038Z,14.13
2018-06-19T13:29:43.713Z,14.57
2018-06-19T13:32:12.964Z,13.20
2018-06-19T13:34:42.083Z,13.40
2018-06-19T13:37:11.099Z,12.13
2018-06-19T13:39:40.716Z,13.53
2018-06-19T13:43:22.983Z,13.23
2018-06-19T13:45:51.860Z,12.97
2018-06-19T13:48:20.754Z,12.37
2018-06-19T13:50:49.655Z,12.43
2018-06-19T13:53:18.531Z,12.73
2018-06-19T13:56:07.603Z,13.53
2018-06-19T13:58:37.362Z,13.73
2018-06-19T14:01:06.782Z,13.60
2018-06-19T14:03:35.684Z,15.27
2018-06-19T14:06:04.748Z,14.83
2018-06-19T14:08:46.423Z,15.57
2018-06-19T14:11:26.664Z,15.40
2018-06-19T14:13:55.577Z,14.20
2018-06-19T14:16:24.443Z,15.70
2018-06-19T14:18:53.324Z,15.37
2018-06-19T14:21:22.214Z,14.50
2018-06-19T14:23:51.104Z,15.73
2018-06-19T14:26:19.999Z,14.47
2018-06-19T14:28:48.921Z,14.87
2018-06-19T14:31:17.783Z,15.07
2018-06-19T14:33:46.760Z,16.17
2018-06-19T14:36:15.666Z,14.90
2018-06-19T14:38:44.539Z,15.67
2018-06-19T14:41:13.442Z,16.00
2018-06-19T14:43:42.316Z,16.07
2018-06-19T14:46:11.213Z,16.13
2018-06-19T14:48:40.096Z,16.83
2018-06-19T14:51:08.995Z,17.13
2018-06-19T14:53:37.875Z,16.63
2018-06-19T14:56:06.790Z,14.77
2018-06-19T14:58:35.667Z,16.07
2018-06-19T15:01:04.576Z,15.97
2018-06-19T15:03:33.447Z,15.07
2018-06-19T15:06:02.411Z,15.27
2018-06-19T15:08:31.307Z,15.77
2018-06-19T15:11:00.225Z,16.27
2018-06-19T15:13:29.107Z,15.87
2018-06-19T15:15:57.982Z,16.50
2018-06-19T15:18:26.956Z,15.57
2018-06-19T15:20:56.165Z,15.17
2018-06-19T15:23:25.143Z,16.73
2018-06-19T15:25:54.137Z,17.30
2018-06-19T15:28:23.009Z,16.20
2018-06-19T15:30:51.887Z,16.83
2018-06-19T15:33:20.781Z,16.27
2018-06-19T15:35:49.669Z,16.83
2018-06-19T15:38:18.571Z,16.37
2018-06-19T15:40:47.451Z,17.50
2018-06-19T15:43:16.382Z,16.37
2018-06-19T15:45:45.263Z,18.07
2018-06-19T15:48:14.163Z,17.47
2018-06-19T15:50:43.067Z,17.87
2018-06-19T15:53:11.938Z,17.30
2018-06-19T15:55:40.821Z,16.73
2018-06-19T15:58:10.315Z,17.30
2018-06-19T16:00:39.202Z,16.40
2018-06-19T16:03:08.148Z,16.53
2018-06-19T16:05:37.019Z,16.37
2018-06-19T16:08:11.505Z,16.17
2018-06-19T16:10:40.399Z,17.00
2018-06-19T16:13:09.295Z,16.57
2018-06-19T16:15:38.395Z,16.47
2018-06-19T16:18:07.319Z,17.23
2018-06-19T16:20:36.239Z,16.30
2018-06-19T16:23:06.898Z,17.17
2018-06-19T16:25:35.936Z,17.93
2018-06-19T16:28:05.191Z,17.53
2018-06-19T16:30:34.078Z,18.40
2018-06-19T16:33:04.214Z,18.87
2018-06-19T16:35:33.763Z,19.77
2018-06-19T16:38:02.753Z,20.13
2018-06-19T16:40:32.306Z,19.27
2018-06-19T16:43:01.607Z,18.23
2018-06-19T16:45:31.141Z,21.60
2018-06-19T16:48:01.780Z,23.13
2018-06-19T16:50:31.273Z,22.97
2018-06-19T16:53:00.643Z,22.87
2018-06-19T16:55:30.211Z,23.37
2018-06-19T16:57:59.103Z,25.30
2018-06-19T17:00:28.387Z,26.17
2018-06-19T17:02:57.302Z,24.70
2018-06-19T17:05:34.097Z,27.23
2018-06-19T17:08:09.509Z,25.83
2018-06-19T17:10:38.503Z,25.30
2018-06-19T17:13:07.398Z,25.73
2018-06-19T17:15:36.322Z,24.90
2018-06-19T17:18:05.267Z,25.43
2018-06-19T17:20:34.658Z,24.07
2018-06-19T17:23:03.552Z,25.87
2018-06-19T17:25:32.439Z,24.83
2018-06-19T17:28:01.341Z,24.23
2018-06-19T17:30:30.230Z,25.93
2018-06-19T17:32:59.614Z,23.83
2018-06-19T17:35:28.507Z,24.27
2018-06-19T17:37:57.476Z,23.53
2018-06-19T17:40:26.537Z,24.13
2018-06-19T17:42:55.430Z,24.87
2018-06-19T17:45:24.302Z,23.80
2018-06-19T17:47:53.236Z,23.20
2018-06-19T17:50:26.493Z,24.07
2018-06-19T17:52:56.145Z,24.27
2018-06-19T17:55:25.083Z,23.87
2018-06-19T17:57:53.955Z,25.13
2018-06-19T18:00:23.302Z,23.10
2018-06-19T18:02:52.183Z,23.17
2018-06-19T18:05:21.133Z,20.83
2018-06-19T18:07:50.022Z,20.03
2018-06-19T18:10:18.992Z,19.77
2018-06-19T18:12:47.865Z,19.40
2018-06-19T18:15:16.761Z,19.40
2018-06-19T18:17:45.646Z,20.07
2018-06-19T18:20:14.526Z,19.77
2018-06-19T18:22:43.431Z,20.53
2018-06-19T18:25:12.319Z,20.43
2018-06-19T18:27:41.190Z,20.00
2018-06-19T18:30:10.162Z,20.27
2018-06-19T18:32:39.312Z,20.20
2018-06-19T18:35:09.176Z,20.97
2018-06-19T18:37:38.242Z,20.53
2018-06-19T18:40:07.660Z,20.97
2018-06-19T18:42:36.550Z,20.60
2018-06-19T18:45:05.647Z,20.10
2018-06-19T18:47:34.867Z,21.23
2018-06-19T18:50:03.814Z,21.10
2018-06-19T18:52:32.717Z,21.63
2018-06-19T18:55:02.016Z,21.13
2018-06-19T18:57:31.214Z,21.30
2018-06-19T19:00:00.364Z,20.83
2018-06-19T19:02:29.449Z,21.03
2018-06-19T19:04:58.759Z,20.83
2018-06-19T19:07:27.718Z,20.03
2018-06-19T19:10:02.268Z,20.20
2018-06-19T19:12:31.240Z,19.50
2018-06-19T19:15:05.831Z,20.60
2018-06-19T19:17:40.281Z,21.00
2018-06-19T19:20:09.966Z,20.93
2018-06-19T19:22:39.507Z,20.93
2018-06-19T19:25:08.677Z,21.33
2018-06-19T19:27:43.498Z,21.17
2018-06-19T19:30:13.012Z,21.60
2018-06-19T19:32:42.257Z,20.33
2018-06-19T19:35:11.839Z,21.83
2018-06-19T19:37:46.253Z,21.07
2018-06-19T19:40:15.231Z,21.40
2018-06-19T19:42:44.232Z,21.33
2018-06-19T19:45:13.519Z,21.93
2018-06-19T19:47:47.978Z,21.93
2018-06-19T19:50:17.403Z,22.67
2018-06-19T19:52:46.503Z,22.93
2018-06-19T19:55:15.644Z,21.90
2018-06-19T19:57:50.240Z,22.00
2018-06-19T20:00:24.734Z,22.70
2018-06-19T20:02:54.672Z,22.30
2018-06-19T20:05:23.563Z,22.90
2018-06-19T20:08:01.845Z,23.50
2018-06-19T20:10:30.979Z,22.23
2018-06-19T20:13:00.044Z,21.70
2018-06-19T20:15:29.151Z,23.37
2018-06-19T20:17:59.626Z,23.07
2018-06-19T20:20:28.975Z,23.07
2018-06-19T20:23:00.804Z,23.83
2018-06-19T20:25:31.683Z,25.07
2018-06-19T20:28:01.989Z,24.07
2018-06-19T20:30:32.687Z,25.23
2018-06-19T20:33:05.482Z,24.97
2018-06-19T20:35:34.385Z,24.60
2018-06-19T20:38:03.352Z,24.70
2018-06-19T20:40:32.245Z,24.40
2018-06-19T20:43:05.671Z,24.00
2018-06-19T20:45:35.292Z,22.57
2018-06-19T20:48:05.523Z,22.00
2018-06-19T20:50:34.514Z,22.03
2018-06-19T20:53:03.602Z,21.33
2018-06-19T20:55:35.498Z,20.90
2018-06-19T20:58:06.277Z,20.73
2018-06-19T21:00:36.997Z,19.97
2018-06-19T21:03:07.948Z,19.93
2018-06-19T21:05:37.039Z,20.20
2018-06-19T21:08:06.219Z,20.07
2018-06-19T21:10:35.334Z,19.80
2018-06-19T21:13:04.290Z,20.63
2018-06-19T21:15:33.280Z,18.83
2018-06-19T21:18:02.291Z,19.97
2018-06-19T21:20:31.330Z,19.70
2018-06-19T21:23:00.281Z,19.77
2018-06-19T21:25:29.243Z,19.33
2018-06-19T21:27:58.216Z,19.27
2018-06-19T21:30:27.263Z,20.17
2018-06-19T21:32:56.249Z,19.87
2018-06-19T21:35:25.278Z,19.33
2018-06-19T21:37:54.315Z,19.50
2018-06-19T21:40:23.327Z,19.73
2018-06-19T21:42:52.289Z,19.23
2018-06-19T21:45:22.262Z,20.27
2018-06-19T21:47:51.734Z,20.43
2018-06-19T21:50:21.191Z,20.47
2018-06-19T21:52:50.726Z,21.13
2018-06-19T21:55:20.941Z,22.33
2018-06-19T21:57:50.233Z,22.53
2018-06-19T22:00:19.814Z,22.57
2018-06-19T22:02:49.082Z,22.27
2018-06-19T22:05:18.159Z,21.90
2018-06-19T22:07:47.194Z,22.20
2018-06-19T22:10:16.671Z,22.93
2018-06-19T22:12:46.245Z,23.37
2018-06-19T22:15:15.247Z,23.33
2018-06-19T22:17:44.574Z,24.53
2018-06-19T22:20:14.150Z,23.20
2018-06-19T22:22:43.870Z,23.50
2018-06-19T22:25:13.235Z,21.93
2018-06-19T22:27:42.770Z,22.33
2018-06-19T22:30:11.833Z,22.93
2018-06-19T22:32:41.010Z,23.33
2018-06-19T22:35:10.082Z,23.67
2018-06-19T22:37:38.967Z,23.90
2018-06-19T22:40:08.060Z,23.97
2018-06-19T22:42:37.665Z,24.03
2018-06-19T22:45:07.288Z,24.73
2018-06-19T22:47:37.187Z,23.47
2018-06-19T22:50:06.612Z,23.63
2018-06-19T22:52:35.886Z,22.67
2018-06-19T22:55:05.358Z,23.60
2018-06-19T22:57:34.566Z,24.13
2018-06-19T23:00:03.537Z,24.90
2018-06-19T23:02:32.665Z,23.50
2018-06-19T23:05:01.860Z,23.43
2018-06-19T23:07:30.955Z,23.57
2018-06-19T23:10:00.138Z,23.83
2018-06-19T23:12:29.239Z,24.07
2018-06-19T23:14:58.610Z,23.47
2018-06-19T23:17:28.151Z,24.70
2018-06-19T23:19:57.543Z,24.60
2018-06-19T23:22:26.787Z,25.33
2018-06-19T23:24:55.704Z,24.67
2018-06-19T23:27:24.606Z,24.73
2018-06-19T23:29:53.495Z,23.40
2018-06-19T23:32:22.394Z,24.37
2018-06-19T23:34:51.257Z,24.97
2018-06-19T23:37:20.143Z,24.43
2018-06-19T23:39:49.019Z,24.43
2018-06-19T23:42:17.911Z,24.63
2018-06-19T23:44:46.782Z,24.10
2018-06-19T23:47:15.718Z,23.43
2018-06-19T23:49:44.602Z,24.43
2018-06-19T23:52:13.515Z,23.33
2018-06-19T23:54:42.386Z,25.00
2018-06-19T23:57:11.281Z,24.20
2018-06-19T23:59:40.177Z,24.40
